Terminal Aerodrome Forecast
Issued by NWS Louisville, KY

Home | Current Version | Previous Version | Text Only | Print | Product List | Glossary On
Versions: 1 2 3 4 5 6 7 8 9 10 11 12 13 14
000
FTUS43 KLMK 201120
TAFBWG
TAF
KBWG 201120Z 2012/2112 00000KT P6SM FEW045 FEW200
     FM201500 27005KT P6SM FEW060 SCT250
     FM210900 00000KT 6SM BR SKC=

USA.gov is the U.S. government's official web portal to all federal, state and local government web resources and services.